sensor_id;sensor_type;location;lat;lon;timestamp;pressure;altitude;pressure_sealevel;temperature;humidity
70250;BME280;57644;48.416;-123.374;2023-02-19T00:00:55;102062.71;;;0.71;100.00
70250;BME280;57644;48.416;-123.374;2023-02-19T00:03:25;102072.09;;;0.71;100.00
70250;BME280;57644;48.416;-123.374;2023-02-19T00:05:58;102066.50;;;0.72;100.00
70250;BME280;57644;48.416;-123.374;2023-02-19T00:08:26;102063.84;;;0.68;100.00
70250;BME280;57644;48.416;-123.374;2023-02-19T00:11:00;102066.27;;;0.67;100.00
70250;BME280;57644;48.416;-123.374;2023-02-19T00:13:27;102068.44;;;0.64;100.00
70250;BME280;57644;48.416;-123.374;2023-02-19T00:15:58;102078.06;;;0.60;100.00
70250;BME280;57644;48.416;-123.374;2023-02-19T00:18:28;102087.11;;;0.53;100.00
70250;BME280;57644;48.416;-123.374;2023-02-19T00:20:58;102083.64;;;0.58;100.00
70250;BME280;57644;48.416;-123.374;2023-02-19T00:23:30;102081.31;;;0.64;100.00
70250;BME280;57644;48.416;-123.374;2023-02-19T00:26:02;102078.23;;;0.65;100.00
70250;BME280;57644;48.416;-123.374;2023-02-19T00:28:30;102072.64;;;0.65;100.00
70250;BME280;57644;48.416;-123.374;2023-02-19T00:31:05;102067.51;;;0.67;100.00
70250;BME280;57644;48.416;-123.374;2023-02-19T00:33:31;102070.00;;;0.68;100.00
70250;BME280;57644;48.416;-123.374;2023-02-19T00:36:03;102070.67;;;0.69;100.00
70250;BME280;57644;48.416;-123.374;2023-02-19T00:38:36;102071.24;;;0.68;100.00
70250;BME280;57644;48.416;-123.374;2023-02-19T00:41:03;102071.31;;;0.64;100.00
70250;BME280;57644;48.416;-123.374;2023-02-19T00:43:33;102073.23;;;0.66;100.00
70250;BME280;57644;48.416;-123.374;2023-02-19T00:46:04;102070.23;;;0.64;100.00
70250;BME280;57644;48.416;-123.374;2023-02-19T00:48:33;102073.06;;;0.65;100.00
70250;BME280;57644;48.416;-123.374;2023-02-19T00:51:04;102068.84;;;0.59;100.00
70250;BME280;57644;48.416;-123.374;2023-02-19T00:53:34;102064.56;;;0.41;100.00
70250;BME280;57644;48.416;-123.374;2023-02-19T00:56:06;102057.91;;;0.44;100.00
70250;BME280;57644;48.416;-123.374;2023-02-19T00:58:35;102057.43;;;0.41;100.00
70250;BME280;57644;48.416;-123.374;2023-02-19T01:01:06;102056.69;;;0.47;100.00
70250;BME280;57644;48.416;-123.374;2023-02-19T01:03:37;102060.05;;;0.42;100.00
70250;BME280;57644;48.416;-123.374;2023-02-19T01:06:08;102067.44;;;0.41;100.00
70250;BME280;57644;48.416;-123.374;2023-02-19T01:08:37;102079.77;;;0.39;100.00
70250;BME280;57644;48.416;-123.374;2023-02-19T01:11:08;102097.91;;;0.42;100.00
70250;BME280;57644;48.416;-123.374;2023-02-19T01:13:38;102101.69;;;0.43;100.00
70250;BME280;57644;48.416;-123.374;2023-02-19T01:16:12;102107.17;;;0.22;100.00
70250;BME280;57644;48.416;-123.374;2023-02-19T01:18:39;102105.21;;;0.40;100.00
70250;BME280;57644;48.416;-123.374;2023-02-19T01:21:13;102103.58;;;0.42;100.00
70250;BME280;57644;48.416;-123.374;2023-02-19T01:23:40;102102.42;;;0.44;100.00
70250;BME280;57644;48.416;-123.374;2023-02-19T01:26:12;102108.43;;;0.27;100.00
70250;BME280;57644;48.416;-123.374;2023-02-19T01:28:40;102103.28;;;0.33;100.00
70250;BME280;57644;48.416;-123.374;2023-02-19T01:31:13;102108.14;;;0.31;100.00
70250;BME280;57644;48.416;-123.374;2023-02-19T01:33:43;102108.34;;;0.26;100.00
70250;BME280;57644;48.416;-123.374;2023-02-19T01:36:11;102107.86;;;0.28;100.00
70250;BME280;57644;48.416;-123.374;2023-02-19T01:38:41;102113.38;;;0.20;100.00
70250;BME280;57644;48.416;-123.374;2023-02-19T01:41:13;102121.78;;;0.29;100.00
70250;BME280;57644;48.416;-123.374;2023-02-19T01:46:11;102122.54;;;0.23;100.00
70250;BME280;57644;48.416;-123.374;2023-02-19T01:48:42;102113.64;;;0.20;100.00
70250;BME280;57644;48.416;-123.374;2023-02-19T01:51:14;102117.18;;;0.21;100.00
70250;BME280;57644;48.416;-123.374;2023-02-19T01:53:45;102123.09;;;0.26;100.00
70250;BME280;57644;48.416;-123.374;2023-02-19T01:56:14;102132.03;;;0.28;100.00
70250;BME280;57644;48.416;-123.374;2023-02-19T01:58:44;102138.14;;;0.31;100.00
70250;BME280;57644;48.416;-123.374;2023-02-19T02:01:13;102142.48;;;0.33;100.00
70250;BME280;57644;48.416;-123.374;2023-02-19T02:03:46;102144.31;;;0.29;100.00
70250;BME280;57644;48.416;-123.374;2023-02-19T02:06:19;102146.56;;;0.20;100.00
70250;BME280;57644;48.416;-123.374;2023-02-19T02:08:45;102155.52;;;0.27;100.00
70250;BME280;57644;48.416;-123.374;2023-02-19T02:11:16;102161.75;;;0.32;100.00
70250;BME280;57644;48.416;-123.374;2023-02-19T02:13:46;102161.54;;;0.36;100.00
70250;BME280;57644;48.416;-123.374;2023-02-19T02:16:22;102157.22;;;0.28;100.00
70250;BME280;57644;48.416;-123.374;2023-02-19T02:18:57;102147.00;;;0.25;100.00
70250;BME280;57644;48.416;-123.374;2023-02-19T02:21:32;102140.52;;;0.23;100.00
70250;BME280;57644;48.416;-123.374;2023-02-19T02:23:59;102135.20;;;0.24;100.00
70250;BME280;57644;48.416;-123.374;2023-02-19T02:26:29;102134.50;;;0.30;100.00
70250;BME280;57644;48.416;-123.374;2023-02-19T02:29:04;102137.86;;;0.31;100.00
70250;BME280;57644;48.416;-123.374;2023-02-19T02:31:24;102134.79;;;0.25;100.00
70250;BME280;57644;48.416;-123.374;2023-02-19T02:33:54;102131.90;;;0.04;100.00
70250;BME280;57644;48.416;-123.374;2023-02-19T02:36:24;102134.82;;;0.00;100.00
70250;BME280;57644;48.416;-123.374;2023-02-19T02:38:51;102144.37;;;0.02;100.00
70250;BME280;57644;48.416;-123.374;2023-02-19T02:41:21;102166.34;;;0.05;100.00
70250;BME280;57644;48.416;-123.374;2023-02-19T02:43:51;102167.71;;;0.02;100.00
70250;BME280;57644;48.416;-123.374;2023-02-19T02:46:26;102170.31;;;0.04;100.00
70250;BME280;57644;48.416;-123.374;2023-02-19T02:48:56;102162.31;;;0.05;100.00
70250;BME280;57644;48.416;-123.374;2023-02-19T02:51:26;102172.14;;;0.11;100.00
70250;BME280;57644;48.416;-123.374;2023-02-19T02:53:57;102188.60;;;0.18;100.00
70250;BME280;57644;48.416;-123.374;2023-02-19T02:56:24;102185.36;;;0.26;100.00
70250;BME280;57644;48.416;-123.374;2023-02-19T02:58:56;102175.73;;;0.25;100.00
70250;BME280;57644;48.416;-123.374;2023-02-19T03:01:29;102172.03;;;0.18;100.00
70250;BME280;57644;48.416;-123.374;2023-02-19T03:04:00;102179.30;;;0.18;100.00
70250;BME280;57644;48.416;-123.374;2023-02-19T03:06:29;102191.54;;;0.22;100.00
70250;BME280;57644;48.416;-123.374;2023-02-19T03:09:00;102190.33;;;0.24;100.00
70250;BME280;57644;48.416;-123.374;2023-02-19T03:11:28;102195.66;;;0.26;100.00
70250;BME280;57644;48.416;-123.374;2023-02-19T03:14:03;102200.86;;;0.23;100.00
70250;BME280;57644;48.416;-123.374;2023-02-19T03:16:32;102202.96;;;0.27;100.00
70250;BME280;57644;48.416;-123.374;2023-02-19T03:19:00;102209.19;;;0.23;100.00
70250;BME280;57644;48.416;-123.374;2023-02-19T03:21:31;102214.33;;;0.22;100.00
70250;BME280;57644;48.416;-123.374;2023-02-19T03:24:01;102210.65;;;0.26;100.00
70250;BME280;57644;48.416;-123.374;2023-02-19T03:26:31;102202.81;;;0.27;100.00
70250;BME280;57644;48.416;-123.374;2023-02-19T03:29:03;102202.53;;;0.28;100.00
70250;BME280;57644;48.416;-123.374;2023-02-19T03:31:32;102199.19;;;0.20;100.00
70250;BME280;57644;48.416;-123.374;2023-02-19T03:34:05;102208.25;;;0.20;100.00
70250;BME280;57644;48.416;-123.374;2023-02-19T03:36:35;102204.85;;;0.18;100.00
70250;BME280;57644;48.416;-123.374;2023-02-19T03:39:07;102199.83;;;0.13;100.00
70250;BME280;57644;48.416;-123.374;2023-02-19T03:41:38;102208.42;;;0.11;100.00
70250;BME280;57644;48.416;-123.374;2023-02-19T03:44:08;102207.32;;;0.11;100.00
70250;BME280;57644;48.416;-123.374;2023-02-19T03:46:39;102206.04;;;0.06;100.00
70250;BME280;57644;48.416;-123.374;2023-02-19T03:49:11;102214.79;;;0.01;100.00
70250;BME280;57644;48.416;-123.374;2023-02-19T03:51:40;102220.69;;;0.03;100.00
70250;BME280;57644;48.416;-123.374;2023-02-19T03:54:12;102224.56;;;0.02;100.00
70250;BME280;57644;48.416;-123.374;2023-02-19T03:56:40;102226.21;;;0.02;100.00
70250;BME280;57644;48.416;-123.374;2023-02-19T03:59:10;102232.88;;;0.03;100.00
70250;BME280;57644;48.416;-123.374;2023-02-19T04:01:40;102237.55;;;0.02;100.00
70250;BME280;57644;48.416;-123.374;2023-02-19T04:04:11;102237.73;;;0.02;100.00
70250;BME280;57644;48.416;-123.374;2023-02-19T04:06:39;102239.23;;;0.02;100.00
70250;BME280;57644;48.416;-123.374;2023-02-19T04:09:10;102245.90;;;0.01;100.00
70250;BME280;57644;48.416;-123.374;2023-02-19T04:11:39;102241.22;;;-0.05;100.00
70250;BME280;57644;48.416;-123.374;2023-02-19T04:14:12;102238.51;;;0.03;100.00
70250;BME280;57644;48.416;-123.374;2023-02-19T04:16:43;102232.99;;;-0.05;100.00
70250;BME280;57644;48.416;-123.374;2023-02-19T04:19:13;102234.66;;;-0.11;100.00
70250;BME280;57644;48.416;-123.374;2023-02-19T04:21:42;102237.90;;;-0.14;100.00
70250;BME280;57644;48.416;-123.374;2023-02-19T04:24:16;102252.17;;;-0.24;100.00
70250;BME280;57644;48.416;-123.374;2023-02-19T04:26:43;102257.11;;;-0.27;100.00
70250;BME280;57644;48.416;-123.374;2023-02-19T04:29:12;102253.21;;;-0.22;100.00
70250;BME280;57644;48.416;-123.374;2023-02-19T04:31:42;102250.99;;;-0.21;100.00
70250;BME280;57644;48.416;-123.374;2023-02-19T04:34:13;102250.37;;;-0.24;100.00
70250;BME280;57644;48.416;-123.374;2023-02-19T04:36:43;102254.99;;;-0.28;100.00
70250;BME280;57644;48.416;-123.374;2023-02-19T04:39:14;102258.45;;;-0.21;100.00
70250;BME280;57644;48.416;-123.374;2023-02-19T04:41:44;102264.34;;;-0.14;100.00
70250;BME280;57644;48.416;-123.374;2023-02-19T04:44:16;102257.00;;;-0.10;100.00
70250;BME280;57644;48.416;-123.374;2023-02-19T04:46:45;102253.96;;;-0.14;100.00
70250;BME280;57644;48.416;-123.374;2023-02-19T04:49:15;102257.58;;;-0.08;100.00
70250;BME280;57644;48.416;-123.374;2023-02-19T04:51:46;102264.21;;;-0.04;100.00
70250;BME280;57644;48.416;-123.374;2023-02-19T04:54:16;102268.14;;;-0.08;100.00
70250;BME280;57644;48.416;-123.374;2023-02-19T04:56:47;102268.05;;;-0.06;100.00
70250;BME280;57644;48.416;-123.374;2023-02-19T04:59:17;102263.36;;;-0.12;100.00
70250;BME280;57644;48.416;-123.374;2023-02-19T05:01:47;102261.82;;;-0.04;100.00
70250;BME280;57644;48.416;-123.374;2023-02-19T05:04:18;102265.65;;;-0.04;100.00
70250;BME280;57644;48.416;-123.374;2023-02-19T05:06:49;102263.80;;;-0.01;100.00
70250;BME280;57644;48.416;-123.374;2023-02-19T05:09:20;102258.27;;;-0.04;100.00
70250;BME280;57644;48.416;-123.374;2023-02-19T05:11:50;102260.10;;;-0.06;100.00
70250;BME280;57644;48.416;-123.374;2023-02-19T05:14:20;102256.49;;;-0.04;100.00
70250;BME280;57644;48.416;-123.374;2023-02-19T05:16:51;102258.99;;;-0.05;100.00
70250;BME280;57644;48.416;-123.374;2023-02-19T05:19:22;102266.07;;;-0.02;100.00
70250;BME280;57644;48.416;-123.374;2023-02-19T05:21:52;102269.54;;;-0.04;100.00
70250;BME280;57644;48.416;-123.374;2023-02-19T05:24:23;102272.90;;;-0.05;100.00
70250;BME280;57644;48.416;-123.374;2023-02-19T05:26:52;102262.20;;;-0.05;100.00
70250;BME280;57644;48.416;-123.374;2023-02-19T05:29:22;102252.32;;;-0.05;100.00
70250;BME280;57644;48.416;-123.374;2023-02-19T05:31:53;102248.79;;;-0.06;100.00
70250;BME280;57644;48.416;-123.374;2023-02-19T05:34:23;102240.69;;;-0.13;100.00
70250;BME280;57644;48.416;-123.374;2023-02-19T05:36:54;102245.37;;;-0.15;100.00
70250;BME280;57644;48.416;-123.374;2023-02-19T05:39:24;102247.91;;;-0.15;100.00
70250;BME280;57644;48.416;-123.374;2023-02-19T05:41:55;102252.46;;;-0.16;100.00
70250;BME280;57644;48.416;-123.374;2023-02-19T05:44:25;102255.71;;;-0.22;100.00
70250;BME280;57644;48.416;-123.374;2023-02-19T05:46:56;102251.83;;;-0.20;100.00
70250;BME280;57644;48.416;-123.374;2023-02-19T05:49:26;102249.92;;;-0.16;100.00
70250;BME280;57644;48.416;-123.374;2023-02-19T05:51:56;102236.36;;;-0.15;100.00
70250;BME280;57644;48.416;-123.374;2023-02-19T05:54:28;102231.83;;;-0.17;100.00
70250;BME280;57644;48.416;-123.374;2023-02-19T05:56:57;102226.81;;;-0.24;100.00
70250;BME280;57644;48.416;-123.374;2023-02-19T05:59:28;102229.90;;;-0.27;100.00
70250;BME280;57644;48.416;-123.374;2023-02-19T06:01:58;102237.38;;;-0.32;100.00
70250;BME280;57644;48.416;-123.374;2023-02-19T06:04:29;102237.47;;;-0.38;100.00
70250;BME280;57644;48.416;-123.374;2023-02-19T06:06:59;102231.93;;;-0.44;100.00
70250;BME280;57644;48.416;-123.374;2023-02-19T06:09:30;102232.99;;;-0.49;100.00
70250;BME280;57644;48.416;-123.374;2023-02-19T06:12:00;102230.05;;;-0.60;100.00
70250;BME280;57644;48.416;-123.374;2023-02-19T06:14:32;102226.59;;;-0.74;100.00
70250;BME280;57644;48.416;-123.374;2023-02-19T06:17:02;102237.68;;;-0.77;100.00
70250;BME280;57644;48.416;-123.374;2023-02-19T06:19:32;102243.13;;;-0.80;100.00
70250;BME280;57644;48.416;-123.374;2023-02-19T06:22:02;102247.87;;;-0.77;100.00
70250;BME280;57644;48.416;-123.374;2023-02-19T06:24:33;102253.73;;;-0.72;100.00
70250;BME280;57644;48.416;-123.374;2023-02-19T06:27:05;102247.99;;;-0.63;100.00
70250;BME280;57644;48.416;-123.374;2023-02-19T06:29:34;102241.25;;;-0.69;100.00
70250;BME280;57644;48.416;-123.374;2023-02-19T06:32:05;102244.41;;;-0.66;100.00
70250;BME280;57644;48.416;-123.374;2023-02-19T06:34:35;102256.76;;;-0.67;100.00
70250;BME280;57644;48.416;-123.374;2023-02-19T06:37:05;102260.17;;;-0.67;100.00
70250;BME280;57644;48.416;-123.374;2023-02-19T06:39:36;102258.17;;;-0.62;100.00
70250;BME280;57644;48.416;-123.374;2023-02-19T06:42:06;102260.84;;;-0.64;100.00
70250;BME280;57644;48.416;-123.374;2023-02-19T06:44:37;102256.21;;;-0.59;100.00
70250;BME280;57644;48.416;-123.374;2023-02-19T06:47:07;102255.50;;;-0.61;100.00
70250;BME280;57644;48.416;-123.374;2023-02-19T06:49:39;102264.70;;;-0.66;100.00
70250;BME280;57644;48.416;-123.374;2023-02-19T06:52:09;102275.15;;;-0.67;100.00
70250;BME280;57644;48.416;-123.374;2023-02-19T06:54:39;102274.83;;;-0.68;100.00
70250;BME280;57644;48.416;-123.374;2023-02-19T06:57:09;102275.36;;;-0.70;100.00
70250;BME280;57644;48.416;-123.374;2023-02-19T06:59:40;102277.90;;;-0.71;100.00
70250;BME280;57644;48.416;-123.374;2023-02-19T07:02:11;102281.29;;;-0.70;100.00
70250;BME280;57644;48.416;-123.374;2023-02-19T07:04:40;102285.74;;;-0.74;100.00
70250;BME280;57644;48.416;-123.374;2023-02-19T07:07:11;102287.14;;;-0.75;100.00
70250;BME280;57644;48.416;-123.374;2023-02-19T07:09:42;102292.55;;;-0.74;100.00
70250;BME280;57644;48.416;-123.374;2023-02-19T07:12:12;102304.63;;;-0.74;100.00
70250;BME280;57644;48.416;-123.374;2023-02-19T07:14:42;102311.88;;;-0.73;100.00
70250;BME280;57644;48.416;-123.374;2023-02-19T07:17:13;102315.08;;;-0.70;100.00
70250;BME280;57644;48.416;-123.374;2023-02-19T07:19:43;102323.44;;;-0.68;100.00
70250;BME280;57644;48.416;-123.374;2023-02-19T07:22:14;102322.01;;;-0.68;100.00
70250;BME280;57644;48.416;-123.374;2023-02-19T07:24:44;102319.89;;;-0.76;100.00
70250;BME280;57644;48.416;-123.374;2023-02-19T07:27:14;102320.77;;;-0.82;100.00
70250;BME280;57644;48.416;-123.374;2023-02-19T07:29:45;102326.70;;;-0.82;100.00
70250;BME280;57644;48.416;-123.374;2023-02-19T07:32:15;102325.83;;;-0.79;100.00
70250;BME280;57644;48.416;-123.374;2023-02-19T07:34:45;102326.98;;;-0.87;100.00
70250;BME280;57644;48.416;-123.374;2023-02-19T07:37:16;102325.76;;;-0.86;100.00
70250;BME280;57644;48.416;-123.374;2023-02-19T07:39:46;102322.34;;;-0.83;100.00
70250;BME280;57644;48.416;-123.374;2023-02-19T07:42:16;102311.23;;;-0.81;100.00
70250;BME280;57644;48.416;-123.374;2023-02-19T07:44:47;102307.96;;;-0.77;100.00
70250;BME280;57644;48.416;-123.374;2023-02-19T07:47:17;102311.86;;;-0.81;100.00
70250;BME280;57644;48.416;-123.374;2023-02-19T07:49:47;102317.37;;;-0.76;100.00
70250;BME280;57644;48.416;-123.374;2023-02-19T07:52:18;102317.14;;;-0.73;100.00
70250;BME280;57644;48.416;-123.374;2023-02-19T07:54:49;102306.48;;;-0.68;100.00
70250;BME280;57644;48.416;-123.374;2023-02-19T07:57:19;102303.21;;;-0.73;100.00
70250;BME280;57644;48.416;-123.374;2023-02-19T07:59:50;102294.21;;;-0.81;100.00
70250;BME280;57644;48.416;-123.374;2023-02-19T08:02:20;102294.69;;;-0.76;100.00
70250;BME280;57644;48.416;-123.374;2023-02-19T08:04:50;102294.79;;;-0.84;100.00
70250;BME280;57644;48.416;-123.374;2023-02-19T08:07:21;102292.53;;;-0.84;100.00
70250;BME280;57644;48.416;-123.374;2023-02-19T08:09:51;102291.74;;;-0.86;100.00
70250;BME280;57644;48.416;-123.374;2023-02-19T08:12:21;102291.30;;;-0.87;100.00
70250;BME280;57644;48.416;-123.374;2023-02-19T08:14:52;102291.40;;;-0.86;100.00
70250;BME280;57644;48.416;-123.374;2023-02-19T08:17:23;102299.85;;;-0.94;100.00
70250;BME280;57644;48.416;-123.374;2023-02-19T08:19:53;102297.18;;;-0.95;100.00
70250;BME280;57644;48.416;-123.374;2023-02-19T08:22:23;102293.40;;;-0.95;100.00
70250;BME280;57644;48.416;-123.374;2023-02-19T08:24:54;102283.54;;;-0.88;100.00
70250;BME280;57644;48.416;-123.374;2023-02-19T08:27:24;102285.22;;;-1.09;100.00
70250;BME280;57644;48.416;-123.374;2023-02-19T08:29:55;102288.38;;;-1.00;100.00
70250;BME280;57644;48.416;-123.374;2023-02-19T08:32:25;102287.36;;;-0.93;100.00
70250;BME280;57644;48.416;-123.374;2023-02-19T08:34:56;102299.64;;;-0.92;100.00
70250;BME280;57644;48.416;-123.374;2023-02-19T08:37:27;102301.48;;;-0.81;100.00
70250;BME280;57644;48.416;-123.374;2023-02-19T08:39:57;102296.97;;;-0.80;100.00
70250;BME280;57644;48.416;-123.374;2023-02-19T08:42:28;102302.72;;;-0.80;100.00
70250;BME280;57644;48.416;-123.374;2023-02-19T08:44:58;102305.97;;;-0.74;100.00
70250;BME280;57644;48.416;-123.374;2023-02-19T08:47:28;102299.77;;;-0.72;100.00
70250;BME280;57644;48.416;-123.374;2023-02-19T08:49:59;102296.33;;;-0.75;100.00
70250;BME280;57644;48.416;-123.374;2023-02-19T08:52:29;102312.88;;;-0.72;100.00
70250;BME280;57644;48.416;-123.374;2023-02-19T08:55:00;102309.51;;;-0.68;100.00
70250;BME280;57644;48.416;-123.374;2023-02-19T08:57:30;102317.34;;;-0.64;100.00
70250;BME280;57644;48.416;-123.374;2023-02-19T09:00:01;102316.65;;;-0.58;100.00
70250;BME280;57644;48.416;-123.374;2023-02-19T09:02:31;102301.49;;;-0.60;100.00
70250;BME280;57644;48.416;-123.374;2023-02-19T09:05:02;102303.16;;;-0.56;100.00
70250;BME280;57644;48.416;-123.374;2023-02-19T09:07:32;102320.54;;;-0.56;100.00
70250;BME280;57644;48.416;-123.374;2023-02-19T09:10:03;102325.53;;;-0.56;100.00
70250;BME280;57644;48.416;-123.374;2023-02-19T09:12:33;102338.10;;;-0.56;100.00
70250;BME280;57644;48.416;-123.374;2023-02-19T09:15:04;102331.12;;;-0.65;100.00
70250;BME280;57644;48.416;-123.374;2023-02-19T09:17:35;102322.64;;;-0.60;100.00
70250;BME280;57644;48.416;-123.374;2023-02-19T09:20:06;102322.51;;;-0.54;100.00
70250;BME280;57644;48.416;-123.374;2023-02-19T09:22:36;102314.29;;;-0.56;100.00
70250;BME280;57644;48.416;-123.374;2023-02-19T09:25:06;102317.23;;;-0.55;100.00
70250;BME280;57644;48.416;-123.374;2023-02-19T09:27:37;102311.86;;;-0.54;100.00
70250;BME280;57644;48.416;-123.374;2023-02-19T09:30:08;102308.49;;;-0.52;100.00
70250;BME280;57644;48.416;-123.374;2023-02-19T09:32:38;102310.80;;;-0.60;100.00
70250;BME280;57644;48.416;-123.374;2023-02-19T09:35:08;102301.93;;;-0.53;100.00
70250;BME280;57644;48.416;-123.374;2023-02-19T09:37:39;102278.31;;;-0.63;100.00
70250;BME280;57644;48.416;-123.374;2023-02-19T09:40:10;102282.45;;;-1.09;100.00
70250;BME280;57644;48.416;-123.374;2023-02-19T09:42:41;102266.22;;;-0.82;100.00
70250;BME280;57644;48.416;-123.374;2023-02-19T09:45:17;102261.34;;;-0.89;100.00
70250;BME280;57644;48.416;-123.374;2023-02-19T09:47:41;102275.54;;;-0.81;100.00
70250;BME280;57644;48.416;-123.374;2023-02-19T09:50:17;102270.99;;;-0.86;100.00
70250;BME280;57644;48.416;-123.374;2023-02-19T09:52:44;102288.84;;;-0.83;100.00
70250;BME280;57644;48.416;-123.374;2023-02-19T09:55:15;102304.34;;;-0.77;100.00
70250;BME280;57644;48.416;-123.374;2023-02-19T09:57:44;102311.24;;;-0.70;100.00
70250;BME280;57644;48.416;-123.374;2023-02-19T10:00:21;102315.27;;;-0.63;100.00
70250;BME280;57644;48.416;-123.374;2023-02-19T10:02:43;102314.52;;;-0.66;100.00
70250;BME280;57644;48.416;-123.374;2023-02-19T10:05:14;102312.07;;;-0.58;100.00
70250;BME280;57644;48.416;-123.374;2023-02-19T10:07:45;102308.16;;;-0.64;100.00
70250;BME280;57644;48.416;-123.374;2023-02-19T10:10:23;102317.62;;;-0.64;100.00
70250;BME280;57644;48.416;-123.374;2023-02-19T10:12:48;102317.48;;;-0.66;100.00
70250;BME280;57644;48.416;-123.374;2023-02-19T10:15:19;102311.42;;;-0.68;100.00
70250;BME280;57644;48.416;-123.374;2023-02-19T10:17:46;102311.88;;;-0.83;100.00
70250;BME280;57644;48.416;-123.374;2023-02-19T10:20:19;102303.20;;;-0.81;100.00
70250;BME280;57644;48.416;-123.374;2023-02-19T10:22:48;102297.10;;;-0.78;100.00
70250;BME280;57644;48.416;-123.374;2023-02-19T10:25:18;102307.29;;;-0.80;100.00
70250;BME280;57644;48.416;-123.374;2023-02-19T10:27:48;102315.78;;;-0.72;100.00
70250;BME280;57644;48.416;-123.374;2023-02-19T10:30:22;102316.79;;;-0.74;100.00
70250;BME280;57644;48.416;-123.374;2023-02-19T10:32:58;102315.03;;;-0.79;100.00
70250;BME280;57644;48.416;-123.374;2023-02-19T10:35:20;102315.02;;;-0.70;100.00
70250;BME280;57644;48.416;-123.374;2023-02-19T10:37:51;102315.48;;;-0.61;100.00
70250;BME280;57644;48.416;-123.374;2023-02-19T10:40:23;102322.30;;;-0.77;100.00
70250;BME280;57644;48.416;-123.374;2023-02-19T10:42:55;102320.76;;;-0.75;100.00
70250;BME280;57644;48.416;-123.374;2023-02-19T10:45:24;102318.58;;;-0.85;100.00
70250;BME280;57644;48.416;-123.374;2023-02-19T10:47:52;102313.88;;;-0.76;100.00
70250;BME280;57644;48.416;-123.374;2023-02-19T10:50:26;102312.37;;;-0.77;100.00
70250;BME280;57644;48.416;-123.374;2023-02-19T10:52:55;102299.88;;;-0.92;100.00
70250;BME280;57644;48.416;-123.374;2023-02-19T10:55:28;102298.72;;;-1.00;100.00
70250;BME280;57644;48.416;-123.374;2023-02-19T10:57:54;102293.81;;;-1.04;100.00
70250;BME280;57644;48.416;-123.374;2023-02-19T11:00:26;102279.19;;;-1.22;100.00
70250;BME280;57644;48.416;-123.374;2023-02-19T11:05:25;102280.56;;;-1.01;100.00
70250;BME280;57644;48.416;-123.374;2023-02-19T11:07:56;102276.89;;;-1.00;100.00
70250;BME280;57644;48.416;-123.374;2023-02-19T11:10:28;102262.17;;;-1.10;100.00
70250;BME280;57644;48.416;-123.374;2023-02-19T11:12:59;102262.07;;;-1.17;100.00
70250;BME280;57644;48.416;-123.374;2023-02-19T11:15:29;102255.55;;;-1.23;100.00
70250;BME280;57644;48.416;-123.374;2023-02-19T11:18:01;102248.91;;;-1.05;100.00
70250;BME280;57644;48.416;-123.374;2023-02-19T11:20:28;102251.36;;;-1.07;100.00
70250;BME280;57644;48.416;-123.374;2023-02-19T11:23:01;102252.22;;;-1.19;100.00
70250;BME280;57644;48.416;-123.374;2023-02-19T11:25:29;102247.77;;;-1.09;100.00
70250;BME280;57644;48.416;-123.374;2023-02-19T11:28:03;102247.76;;;-1.22;100.00
70250;BME280;57644;48.416;-123.374;2023-02-19T11:30:37;102250.16;;;-1.47;100.00
70250;BME280;57644;48.416;-123.374;2023-02-19T11:35:30;102251.65;;;-1.33;100.00
70250;BME280;57644;48.416;-123.374;2023-02-19T11:38:01;102258.06;;;-1.43;100.00
70250;BME280;57644;48.416;-123.374;2023-02-19T11:40:39;102259.53;;;-1.42;100.00
70250;BME280;57644;48.416;-123.374;2023-02-19T11:43:07;102257.16;;;-1.62;100.00
70250;BME280;57644;48.416;-123.374;2023-02-19T11:45:37;102262.11;;;-1.47;100.00
70250;BME280;57644;48.416;-123.374;2023-02-19T11:48:11;102267.03;;;-1.57;100.00
70250;BME280;57644;48.416;-123.374;2023-02-19T11:50:44;102276.10;;;-1.39;100.00
70250;BME280;57644;48.416;-123.374;2023-02-19T11:53:12;102273.92;;;-1.42;100.00
70250;BME280;57644;48.416;-123.374;2023-02-19T11:55:44;102268.39;;;-1.47;100.00
70250;BME280;57644;48.416;-123.374;2023-02-19T11:58:13;102263.14;;;-1.48;100.00
70250;BME280;57644;48.416;-123.374;2023-02-19T12:00:39;102254.29;;;-1.65;100.00
70250;BME280;57644;48.416;-123.374;2023-02-19T12:05:44;102252.74;;;-1.66;100.00
70250;BME280;57644;48.416;-123.374;2023-02-19T12:10:43;102265.23;;;-1.35;100.00
70250;BME280;57644;48.416;-123.374;2023-02-19T12:13:12;102262.57;;;-1.42;100.00
70250;BME280;57644;48.416;-123.374;2023-02-19T12:15:43;102265.03;;;-1.28;100.00
70250;BME280;57644;48.416;-123.374;2023-02-19T12:20:45;102264.58;;;-1.60;100.00
70250;BME280;57644;48.416;-123.374;2023-02-19T12:23:21;102259.87;;;-1.36;100.00
70250;BME280;57644;48.416;-123.374;2023-02-19T12:25:49;102257.99;;;-1.32;100.00
70250;BME280;57644;48.416;-123.374;2023-02-19T12:28:23;102257.20;;;-1.26;100.00
70250;BME280;57644;48.416;-123.374;2023-02-19T12:30:50;102255.87;;;-1.19;100.00
70250;BME280;57644;48.416;-123.374;2023-02-19T12:35:45;102260.09;;;-1.15;100.00
70250;BME280;57644;48.416;-123.374;2023-02-19T12:38:20;102265.30;;;-1.09;100.00
70250;BME280;57644;48.416;-123.374;2023-02-19T12:40:52;102261.85;;;-1.33;100.00
70250;BME280;57644;48.416;-123.374;2023-02-19T12:43:15;102254.10;;;-1.15;100.00
70250;BME280;57644;48.416;-123.374;2023-02-19T12:45:46;102267.97;;;-1.23;100.00